Time;durP1;ratioP1;P1;durP2;ratioP2;P2;SDS_P1;SDS_P2;PMS_P1;PMS_P2;Temp;Humidity;BMP_temperature;BMP_pressure;BME280_temperature;BME280_humidity;BME280_pressure;Samples;Min_cycle;Max_cycle;Signal;HPM_P1;HPM_P2
2022/06/20 00:00:38;;;;;;;13.28;4.80;;;;;;;22.38;49.72;99439.61;1659655;85;25629;-67
2022/06/20 00:03:06;;;;;;;9.93;4.62;;;;;;;22.36;49.88;99446.91;1673937;85;25768;-69
2022/06/20 00:05:36;;;;;;;12.43;5.05;;;;;;;22.36;49.95;99451.64;1673921;85;25693;-68
2022/06/20 00:08:05;;;;;;;11.75;5.53;;;;;;;22.34;49.92;99448.52;1667996;85;28155;-69
2022/06/20 00:10:32;;;;;;;11.23;4.93;;;;;;;22.31;49.92;99447.35;1674153;85;26290;-68
2022/06/20 00:13:00;;;;;;;8.83;5.08;;;;;;;22.30;50.06;99462.91;1665282;85;25484;-68
2022/06/20 00:15:35;;;;;;;10.13;4.85;;;;;;;22.28;50.18;99466.67;1636448;85;25844;-70
2022/06/20 00:18:06;;;;;;;9.48;5.05;;;;;;;22.26;50.28;99464.30;1674063;85;25403;-69
2022/06/20 00:20:32;;;;;;;11.93;5.03;;;;;;;22.23;50.35;99465.70;1664919;85;27616;-69
2022/06/20 00:22:59;;;;;;;9.68;4.75;;;;;;;22.21;50.33;99473.00;1663409;85;25714;-68
2022/06/20 00:25:25;;;;;;;9.05;5.15;;;;;;;22.17;50.43;99468.13;1673948;85;25820;-69
2022/06/20 00:27:57;;;;;;;9.23;5.50;;;;;;;22.16;50.48;99462.42;1674082;85;26307;-69
2022/06/20 00:30:21;;;;;;;9.23;4.97;;;;;;;22.12;50.42;99457.55;1665023;85;25448;-69
2022/06/20 00:32:48;;;;;;;8.78;5.05;;;;;;;22.07;50.66;99442.85;1674182;85;28109;-69
2022/06/20 00:35:15;;;;;;;12.75;5.70;;;;;;;22.01;50.76;99436.41;1674001;85;25736;-69
2022/06/20 00:37:43;;;;;;;12.98;5.20;;;;;;;21.95;51.10;99430.37;1674156;85;25429;-69
2022/06/20 00:40:39;;;;;;;10.80;5.45;;;;;;;21.90;51.03;99431.59;1674080;85;25566;-70
2022/06/20 00:43:13;;;;;;;11.20;6.00;;;;;;;21.86;51.32;99425.92;1674166;85;25717;-70
2022/06/20 00:45:44;;;;;;;11.90;5.47;;;;;;;21.80;51.53;99418.70;1674254;85;28040;-70
2022/06/20 00:48:27;;;;;;;8.73;6.20;;;;;;;21.74;51.70;99414.23;1674081;85;25687;-70
2022/06/20 00:50:59;;;;;;;9.23;5.70;;;;;;;21.69;51.76;99416.05;1610411;88;25589;-69
2022/06/20 00:53:36;;;;;;;7.70;5.65;;;;;;;21.63;51.99;99401.92;1630530;87;25645;-69
2022/06/20 00:56:23;;;;;;;7.87;5.15;;;;;;;21.57;52.01;99392.55;1614260;85;25712;-69
2022/06/20 00:59:06;;;;;;;10.32;5.22;;;;;;;21.52;52.10;99410.88;1632710;85;28210;-71
2022/06/20 01:01:37;;;;;;;10.10;5.25;;;;;;;21.51;52.41;99407.92;1595400;89;25766;-71
2022/06/20 01:04:09;;;;;;;11.22;5.70;;;;;;;21.47;52.35;99403.62;1616921;86;25787;-71
2022/06/20 01:06:40;;;;;;;12.18;6.08;;;;;;;21.43;52.77;99411.88;1621483;87;25705;-70
2022/06/20 01:09:10;;;;;;;10.23;5.47;;;;;;;21.40;52.78;99408.55;1618072;87;25552;-70
2022/06/20 01:11:50;;;;;;;9.13;5.45;;;;;;;21.34;53.03;99398.58;1639358;87;27546;-70
2022/06/20 01:14:38;;;;;;;14.73;6.30;;;;;;;21.30;53.01;99399.78;1638628;87;25838;-70
2022/06/20 01:17:36;;;;;;;8.80;5.75;;;;;;;21.26;53.36;99434.96;1628096;87;25786;-69
2022/06/20 01:20:19;;;;;;;11.00;5.53;;;;;;;21.24;53.26;99462.69;1632142;87;25685;-71
2022/06/20 01:23:05;;;;;;;9.60;5.60;;;;;;;21.23;53.29;99456.98;1638880;87;25496;-71
2022/06/20 01:25:59;;;;;;;14.95;5.87;;;;;;;21.19;53.33;99471.36;1622616;87;27352;-70
2022/06/20 01:28:39;;;;;;;13.28;5.70;;;;;;;21.15;53.45;99466.48;1694213;84;25638;-71
2022/06/20 01:31:09;;;;;;;16.57;6.17;;;;;;;21.12;53.87;99478.27;1703563;83;25641;-69
2022/06/20 01:33:36;;;;;;;11.57;6.08;;;;;;;21.06;53.91;99476.52;1703626;84;25806;-69
2022/06/20 01:38:49;;;;;;;10.45;5.97;;;;;;;20.97;54.22;99472.05;1697859;84;27351;-69
2022/06/20 01:44:05;;;;;;;9.27;5.90;;;;;;;20.84;54.58;99479.38;1703944;84;25439;-71
2022/06/20 01:46:34;;;;;;;12.15;6.67;;;;;;;20.79;54.62;99477.61;1703585;82;26288;-68
2022/06/20 01:49:11;;;;;;;10.85;6.58;;;;;;;20.75;54.74;99467.23;1703824;84;33398;-69
2022/06/20 01:51:51;;;;;;;9.35;5.80;;;;;;;20.69;55.18;99462.75;1703683;84;27486;-69
2022/06/20 01:54:20;;;;;;;9.75;5.97;;;;;;;20.64;55.20;99458.43;1703674;82;25678;-69
2022/06/20 01:56:49;;;;;;;12.53;6.30;;;;;;;20.61;55.47;99472.16;1703749;82;25580;-69
2022/06/20 01:59:29;;;;;;;12.00;6.60;;;;;;;20.57;55.50;99465.30;1704732;82;25848;-69
2022/06/20 02:01:57;;;;;;;6.70;5.80;;;;;;;20.53;55.61;99468.06;1705857;83;25641;-69
2022/06/20 02:04:27;;;;;;;14.35;6.95;;;;;;;20.51;55.75;99476.48;1705940;84;27362;-69
2022/06/20 02:06:55;;;;;;;8.95;6.87;;;;;;;20.50;55.73;99474.94;1705958;84;25596;-69
2022/06/20 02:09:22;;;;;;;13.80;7.55;;;;;;;20.47;56.03;99474.35;1705928;84;25667;-69
2022/06/20 02:11:49;;;;;;;18.48;8.30;;;;;;;20.44;56.17;99475.91;1705938;84;26319;-69
2022/06/20 02:14:30;;;;;;;13.32;7.00;;;;;;;20.42;56.19;99471.41;1706023;84;25539;-70
2022/06/20 02:17:01;;;;;;;10.28;6.20;;;;;;;20.41;56.05;99476.70;1705998;84;28006;-69
2022/06/20 02:19:35;;;;;;;11.90;6.47;;;;;;;20.39;56.13;99478.28;1705839;84;25567;-69
2022/06/20 02:22:07;;;;;;;11.05;6.30;;;;;;;20.38;56.39;99495.93;1705975;84;25623;-70
2022/06/20 02:24:41;;;;;;;13.78;6.60;;;;;;;20.36;56.35;99484.56;1705923;84;25616;-70
2022/06/20 02:27:31;;;;;;;16.17;6.75;;;;;;;20.33;56.46;99488.30;1705995;84;25480;-70
2022/06/20 02:30:18;;;;;;;12.82;6.40;;;;;;;20.29;56.53;99484.76;1705999;84;27966;-69
2022/06/20 02:32:54;;;;;;;11.50;6.70;;;;;;;20.24;56.91;99479.66;1795535;79;25420;-68
2022/06/20 02:35:21;;;;;;;12.95;5.87;;;;;;;20.20;57.04;99490.48;1817940;78;25604;-69
2022/06/20 02:37:49;;;;;;;13.88;6.85;;;;;;;20.17;57.04;99496.16;1817915;78;26036;-69
2022/06/20 02:40:20;;;;;;;7.35;6.35;;;;;;;20.15;57.15;99488.91;1817920;78;25524;-68
2022/06/20 02:43:12;;;;;;;8.85;6.08;;;;;;;20.13;57.25;99488.52;1817858;78;28125;-68
2022/06/20 02:45:40;;;;;;;8.65;6.83;;;;;;;20.11;57.50;99490.87;1817811;78;25453;-69
2022/06/20 02:48:09;;;;;;;12.88;6.92;;;;;;;20.09;57.56;99491.84;1817860;78;25585;-69
2022/06/20 02:50:44;;;;;;;12.68;6.67;;;;;;;20.09;57.83;99500.88;1818021;78;25648;-69
2022/06/20 02:53:38;;;;;;;11.63;7.12;;;;;;;20.08;57.87;99498.52;1817835;78;25629;-69
2022/06/20 02:56:08;;;;;;;16.48;7.05;;;;;;;20.07;58.15;99483.99;1817875;78;28215;-69
2022/06/20 02:58:39;;;;;;;12.20;6.78;;;;;;;20.07;58.17;99496.94;1817950;78;25422;-69
2022/06/20 03:01:16;;;;;;;10.85;7.15;;;;;;;20.07;58.26;99512.04;1818013;78;25678;-70
2022/06/20 03:03:48;;;;;;;11.25;6.80;;;;;;;20.09;58.51;99513.80;1815380;78;25623;-69
2022/06/20 03:06:27;;;;;;;16.25;6.72;;;;;;;20.10;58.37;99512.63;1818060;78;25643;-68
2022/06/20 03:08:56;;;;;;;13.98;7.10;;;;;;;20.11;58.68;99518.33;1796408;78;27304;-68
2022/06/20 03:11:27;;;;;;;11.10;7.25;;;;;;;20.14;58.70;99521.64;1786631;78;25241;-68
2022/06/20 03:13:55;;;;;;;12.37;6.78;;;;;;;20.15;58.76;99530.86;1818214;78;25713;-69
2022/06/20 03:16:22;;;;;;;10.88;7.50;;;;;;;20.19;58.84;99530.08;1818524;78;26303;-69
2022/06/20 03:18:51;;;;;;;9.98;7.60;;;;;;;20.20;59.05;99531.06;1818318;78;25410;-69
2022/06/20 03:21:23;;;;;;;14.00;7.20;;;;;;;20.23;58.99;99533.03;1818465;78;28102;-70
2022/06/20 03:23:50;;;;;;;13.98;7.15;;;;;;;20.25;59.08;99534.02;1818102;78;25628;-69
2022/06/20 03:26:24;;;;;;;12.73;6.85;;;;;;;20.26;59.14;99535.56;1818241;78;25441;-70
2022/06/20 03:28:52;;;;;;;12.85;6.78;;;;;;;20.30;59.27;99526.75;1818132;78;25677;-69
2022/06/20 03:31:18;;;;;;;13.53;7.10;;;;;;;20.31;59.61;99530.48;1816942;78;26058;-69
2022/06/20 03:33:46;;;;;;;11.73;6.42;;;;;;;20.36;59.81;99541.64;1815477;78;28007;-70
2022/06/20 03:36:20;;;;;;;13.80;7.40;;;;;;;20.39;59.90;99538.70;1815356;78;25552;-69
2022/06/20 03:38:48;;;;;;;13.08;7.00;;;;;;;20.44;60.05;99545.17;1814944;79;25635;-69
2022/06/20 03:41:21;;;;;;;15.75;7.50;;;;;;;20.49;60.29;99544.78;1815164;78;25632;-69
2022/06/20 03:44:11;;;;;;;16.15;7.10;;;;;;;20.53;60.30;99557.91;1815216;78;25646;-69
2022/06/20 03:46:55;;;;;;;20.88;7.08;;;;;;;20.59;60.47;99554.19;1815534;78;27433;-68
2022/06/20 03:49:29;;;;;;;13.72;7.35;;;;;;;20.62;60.51;99551.46;1798438;79;25477;-68
2022/06/20 03:52:04;;;;;;;12.05;6.58;;;;;;;20.67;60.55;99546.94;1818034;78;25657;-71
2022/06/20 03:55:00;;;;;;;15.30;6.70;;;;;;;20.71;60.76;99545.55;1817843;78;26502;-71
2022/06/20 03:57:36;;;;;;;13.98;6.50;;;;;;;20.76;60.87;99541.63;1764312;80;25717;-69
2022/06/20 04:00:17;;;;;;;12.20;6.70;;;;;;;20.81;60.96;99547.49;1798384;79;27316;-69
2022/06/20 04:03:10;;;;;;;17.20;6.50;;;;;;;20.86;61.07;99544.34;1814167;78;26082;-68
2022/06/20 04:05:47;;;;;;;13.45;6.33;;;;;;;20.92;61.27;99540.58;1747976;81;25534;-69
2022/06/20 04:11:38;;;;;;;13.15;6.85;;;;;;;21.02;61.32;99553.51;1817838;78;25743;-70
2022/06/20 04:14:10;;;;;;;8.95;6.62;;;;;;;21.08;61.49;99562.92;1817987;78;27253;-71
2022/06/20 04:16:47;;;;;;;13.18;6.35;;;;;;;21.15;61.57;99562.12;1765349;81;25564;-70
2022/06/20 04:19:24;;;;;;;13.35;6.62;;;;;;;21.24;61.57;99565.21;1815442;79;26245;-70
2022/06/20 04:22:02;;;;;;;14.60;6.83;;;;;;;21.27;61.32;99567.17;1798587;79;25825;-70
2022/06/20 04:24:53;;;;;;;15.60;6.47;;;;;;;21.33;61.28;99577.75;1815332;79;25748;-70
2022/06/20 04:27:30;;;;;;;9.50;6.30;;;;;;;21.36;61.16;99590.72;1817957;78;27308;-69
2022/06/20 04:30:11;;;;;;;16.20;6.53;;;;;;;21.40;61.28;99595.02;1795071;79;25529;-68
2022/06/20 04:32:58;;;;;;;12.80;6.70;;;;;;;21.43;61.29;99594.20;1797183;78;25654;-69
2022/06/20 04:35:33;;;;;;;11.43;5.70;;;;;;;21.46;61.15;99596.77;1790708;79;25797;-70
2022/06/20 04:38:14;;;;;;;19.85;7.33;;;;;;;21.52;61.22;99596.58;1760085;81;25611;-70
2022/06/20 04:41:01;;;;;;;14.93;5.05;;;;;;;21.57;61.14;99599.48;1810062;78;27012;-68
2022/06/20 04:43:42;;;;;;;10.03;5.25;;;;;;;21.59;60.89;99586.91;1798851;78;25657;-69
2022/06/20 04:46:25;;;;;;;14.25;5.05;;;;;;;21.63;60.66;99598.66;1785338;80;25614;-70
2022/06/20 04:48:53;;;;;;;11.70;4.47;;;;;;;21.67;60.54;99602.00;1679015;84;26169;-68
2022/06/20 04:51:25;;;;;;;11.53;4.37;;;;;;;21.71;60.41;99622.02;1679144;84;25754;-69
2022/06/20 04:53:52;;;;;;;9.18;3.75;;;;;;;21.74;60.39;99625.34;1678215;84;28015;-69
2022/06/20 04:56:28;;;;;;;9.18;4.15;;;;;;;21.80;60.41;99638.29;1678900;84;25774;-69
2022/06/20 04:59:01;;;;;;;9.05;3.87;;;;;;;21.87;60.18;99644.95;1676387;84;25790;-69
2022/06/20 05:01:32;;;;;;;11.68;3.62;;;;;;;21.93;60.19;99665.35;1678915;84;26189;-68
2022/06/20 05:04:13;;;;;;;11.83;5.37;;;;;;;22.03;59.92;99676.13;1678121;84;25766;-69
2022/06/20 05:06:41;;;;;;;11.20;5.58;;;;;;;22.10;59.58;99658.98;1674486;84;27423;-70
2022/06/20 05:09:19;;;;;;;10.75;4.28;;;;;;;22.22;59.37;99672.87;1678724;85;25838;-69
2022/06/20 05:11:54;;;;;;;8.85;3.83;;;;;;;22.33;59.16;99674.98;1669802;84;25762;-68
2022/06/20 05:14:30;;;;;;;12.82;3.80;;;;;;;22.45;59.07;99670.19;1671965;84;25822;-68
2022/06/20 05:16:57;;;;;;;6.28;3.58;;;;;;;22.59;58.91;99665.16;1669951;84;25875;-68
2022/06/20 05:19:30;;;;;;;9.48;3.72;;;;;;;22.63;58.33;99643.85;1671895;84;27504;-68
2022/06/20 05:22:04;;;;;;;8.35;3.15;;;;;;;22.64;58.15;99643.45;1672564;84;25740;-69
2022/06/20 05:24:37;;;;;;;8.58;3.50;;;;;;;22.65;58.05;99644.25;1673751;84;25718;-68
2022/06/20 05:27:13;;;;;;;10.10;4.35;;;;;;;22.63;57.89;99636.39;1751512;81;26513;-69
2022/06/20 05:29:43;;;;;;;11.05;4.00;;;;;;;22.62;57.73;99649.97;1767508;80;25575;-67
2022/06/20 05:32:14;;;;;;;10.90;3.47;;;;;;;22.55;57.68;99658.30;1763167;80;27345;-67
2022/06/20 05:34:45;;;;;;;10.08;4.05;;;;;;;22.54;57.75;99659.48;1786985;80;26244;-67
2022/06/20 05:37:44;;;;;;;11.60;3.83;;;;;;;22.54;57.84;99662.23;1768184;81;25419;-67
2022/06/20 05:40:17;;;;;;;14.33;3.85;;;;;;;22.61;57.96;99660.82;1752024;81;25699;-68
2022/06/20 05:42:43;;;;;;;12.73;3.52;;;;;;;22.71;57.79;99666.03;1768407;81;25706;-67
2022/06/20 05:45:22;;;;;;;12.82;3.40;;;;;;;22.80;57.40;99677.39;1768352;81;27333;-68
2022/06/20 05:47:55;;;;;;;13.43;4.28;;;;;;;22.84;57.17;99667.11;1765491;81;25875;-68
2022/06/20 05:50:39;;;;;;;10.90;3.70;;;;;;;22.89;56.95;99685.19;1803071;78;25421;-69
2022/06/20 05:53:14;;;;;;;13.05;3.50;;;;;;;22.91;56.80;99672.55;1774784;79;25776;-68
2022/06/20 05:55:49;;;;;;;9.40;3.58;;;;;;;22.90;56.69;99674.33;1738682;82;25686;-69
2022/06/20 05:58:29;;;;;;;8.40;3.20;;;;;;;22.92;56.72;99680.24;1740435;80;27317;-70
2022/06/20 06:01:02;;;;;;;9.70;3.80;;;;;;;22.94;56.52;99688.88;1740273;81;25712;-68
2022/06/20 06:03:56;;;;;;;11.20;3.42;;;;;;;23.03;56.53;99697.45;1747979;81;25478;-69
2022/06/20 06:06:31;;;;;;;10.98;3.30;;;;;;;23.08;56.82;99688.77;1740291;82;25636;-68
2022/06/20 06:09:19;;;;;;;10.13;3.17;;;;;;;23.15;56.61;99687.14;1755888;80;25776;-70
2022/06/20 06:12:05;;;;;;;9.65;2.95;;;;;;;23.16;56.61;99683.20;1739545;80;27928;-70
2022/06/20 06:14:41;;;;;;;15.10;3.60;;;;;;;23.16;56.67;99666.66;1758525;81;25674;-68
2022/06/20 06:17:31;;;;;;;9.68;3.27;;;;;;;23.20;56.64;99653.59;1762731;81;25727;-70
2022/06/20 06:20:18;;;;;;;;;;;;;;;23.28;56.51;99640.69;1762810;80;25737;-69
2022/06/20 06:22:48;;;;;;;9.63;2.77;;;;;;;23.33;56.79;99658.78;1738740;82;25736;-69
2022/06/20 06:25:32;;;;;;;7.83;3.67;;;;;;;23.40;56.87;99646.27;1738843;81;27381;-68
2022/06/20 06:28:06;;;;;;;9.25;3.22;;;;;;;23.59;57.24;99625.53;1738233;82;25796;-68
2022/06/20 06:30:38;;;;;;;16.57;5.67;;;;;;;23.90;56.76;99629.69;1726257;83;25546;-69
2022/06/20 06:33:38;;;;;;;6.72;3.62;;;;;;;23.97;55.85;99623.28;1694939;84;26312;-70
2022/06/20 06:36:18;;;;;;;9.63;3.42;;;;;;;24.03;55.63;99612.73;1707749;84;25675;-68
2022/06/20 06:38:53;;;;;;;9.20;3.42;;;;;;;24.08;54.88;99582.48;1709822;83;27579;-66
2022/06/20 06:41:31;;;;;;;9.45;3.42;;;;;;;24.03;54.51;99564.39;1705845;84;25720;-68
2022/06/20 06:43:59;;;;;;;13.45;4.10;;;;;;;23.95;54.23;99561.55;1707201;84;25727;-69
2022/06/20 06:46:38;;;;;;;7.37;3.45;;;;;;;23.90;54.01;99566.17;1725925;83;25688;-68
2022/06/20 06:49:33;;;;;;;10.82;3.02;;;;;;;23.82;53.79;99577.94;1707141;84;25404;-69
2022/06/20 06:52:25;;;;;;;11.25;3.02;;;;;;;23.78;53.89;99584.06;1690504;84;28025;-69
2022/06/20 06:55:06;;;;;;;11.30;4.33;;;;;;;23.78;53.68;99591.58;1706786;84;26512;-69
2022/06/20 06:57:42;;;;;;;9.98;3.25;;;;;;;23.83;54.25;99586.99;1706927;84;25631;-69
2022/06/20 07:00:16;;;;;;;9.73;3.10;;;;;;;24.07;54.42;99613.28;1706811;84;25624;-69
2022/06/20 07:02:47;;;;;;;11.90;3.42;;;;;;;24.34;54.42;99634.76;1706945;84;25747;-69
2022/06/20 07:05:38;;;;;;;8.65;3.67;;;;;;;24.50;54.13;99625.03;1706924;84;27265;-69
2022/06/20 07:08:24;;;;;;;8.83;4.08;;;;;;;24.56;53.12;99615.09;1723959;83;25452;-70
2022/06/20 07:11:10;;;;;;;8.25;3.58;;;;;;;24.53;52.96;99644.32;1724865;82;25712;-69
2022/06/20 07:13:54;;;;;;;13.03;3.70;;;;;;;24.53;52.79;99603.47;1705795;84;25990;-70
2022/06/20 07:16:32;;;;;;;12.68;3.52;;;;;;;24.50;52.48;99572.52;1706916;84;25554;-69
2022/06/20 07:18:59;;;;;;;9.13;3.75;;;;;;;24.38;52.44;99565.03;1706911;84;27614;-68
2022/06/20 07:21:29;;;;;;;13.80;4.22;;;;;;;24.23;52.36;99594.09;1693821;84;25747;-68
2022/06/20 07:24:00;;;;;;;9.80;3.98;;;;;;;24.08;52.63;99605.19;1739001;81;25737;-69
2022/06/20 07:26:31;;;;;;;13.58;4.05;;;;;;;23.91;52.77;99577.41;1749988;82;25774;-69
2022/06/20 07:29:05;;;;;;;11.00;3.20;;;;;;;23.83;53.01;99618.14;1702132;83;25622;-69
2022/06/20 07:31:39;;;;;;;7.12;3.98;;;;;;;23.74;53.09;99604.05;1732511;82;27383;-69
2022/06/20 07:34:28;;;;;;;11.22;4.00;;;;;;;23.67;53.47;99624.25;1731891;82;25843;-69
2022/06/20 07:37:01;;;;;;;10.70;3.90;;;;;;;23.64;53.70;99604.98;1732642;82;25841;-69
2022/06/20 07:39:36;;;;;;;8.58;3.85;;;;;;;23.61;53.99;99670.66;1706849;81;25691;-68
2022/06/20 07:42:16;;;;;;;12.00;4.08;;;;;;;23.59;54.33;99652.36;1724081;82;25754;-69
2022/06/20 07:44:49;;;;;;;11.70;4.10;;;;;;;23.60;54.56;99660.81;1731167;82;27411;-70
2022/06/20 07:47:39;;;;;;;8.60;3.47;;;;;;;23.68;54.94;99636.87;1726345;82;25772;-69
2022/06/20 07:50:13;;;;;;;6.40;3.50;;;;;;;23.80;54.82;99634.73;1720833;82;25755;-70
2022/06/20 07:52:48;;;;;;;9.85;3.42;;;;;;;24.09;55.63;99652.31;1723175;82;25896;-71
2022/06/20 07:55:19;;;;;;;10.05;3.67;;;;;;;24.43;55.24;99643.89;1697762;83;25774;-70
2022/06/20 07:57:56;;;;;;;6.97;3.35;;;;;;;24.67;54.39;99640.59;1738384;82;27379;-68
2022/06/20 08:00:27;;;;;;;12.23;3.70;;;;;;;24.78;53.92;99650.07;1719519;82;25719;-68
2022/06/20 08:03:27;;;;;;;6.55;3.58;;;;;;;24.86;53.27;99636.30;1734466;81;25659;-68
2022/06/20 08:06:07;;;;;;;9.43;3.40;;;;;;;24.95;53.41;99621.92;1599875;88;25799;-68
2022/06/20 08:08:44;;;;;;;9.05;3.37;;;;;;;25.15;53.41;99604.73;1588332;89;25823;-68
2022/06/20 08:11:40;;;;;;;13.22;4.05;;;;;;;25.56;53.75;99590.30;1577644;89;27558;-69
2022/06/20 08:13:54;;;;;;;8.90;4.03;;;;;;;26.04;52.92;99569.44;1583094;89;25756;-69
2022/06/20 08:16:24;;;;;;;7.20;3.58;;;;;;;26.41;52.40;99553.49;1603823;89;25734;-70
2022/06/20 08:18:51;;;;;;;8.05;3.47;;;;;;;26.74;51.81;99550.67;1604582;88;25683;-70
2022/06/20 08:21:23;;;;;;;14.70;4.67;;;;;;;27.06;50.82;99548.23;1604903;88;25420;-69
2022/06/20 08:24:04;;;;;;;12.55;3.60;;;;;;;27.29;50.04;99534.70;1603957;88;27398;-66
2022/06/20 08:26:35;;;;;;;8.25;3.17;;;;;;;27.49;50.02;99520.62;1570699;90;25410;-67
2022/06/20 08:29:09;;;;;;;14.03;3.98;;;;;;;27.79;49.38;99501.81;1575855;89;25769;-68
2022/06/20 08:31:44;;;;;;;8.40;4.22;;;;;;;27.99;48.51;99493.27;1583982;89;26027;-69
2022/06/20 08:34:31;;;;;;;7.92;3.52;;;;;;;28.17;48.35;99484.34;1586986;87;25718;-68
2022/06/20 08:37:10;;;;;;;11.90;3.50;;;;;;;28.45;48.16;99466.66;1597931;88;27349;-67
2022/06/20 08:39:41;;;;;;;7.12;3.25;;;;;;;28.79;47.63;99448.97;1601741;86;25951;-67
2022/06/20 08:42:48;;;;;;;12.35;3.75;;;;;;;28.98;46.55;99453.42;1646740;84;26328;-67
2022/06/20 08:45:38;;;;;;;22.60;4.75;;;;;;;29.11;46.23;99440.79;1663821;84;25821;-67
2022/06/20 08:48:48;;;;;;;10.88;4.42;;;;;;;29.29;45.50;99431.02;1703901;84;25736;-66
2022/06/20 08:52:09;;;;;;;9.60;3.83;;;;;;;29.39;45.31;99420.83;1639518;87;27361;-69
2022/06/20 08:55:02;;;;;;;11.53;3.60;;;;;;;29.62;44.96;99406.94;1639360;87;25773;-70
2022/06/20 08:57:37;;;;;;;11.83;4.05;;;;;;;29.73;44.41;99402.93;1617079;88;26139;-67
2022/06/20 09:00:21;;;;;;;13.53;4.45;;;;;;;29.72;44.45;99391.64;1619186;87;25772;-69
2022/06/20 09:02:52;;;;;;;12.03;4.12;;;;;;;29.62;44.05;99392.25;1610678;87;25743;-67
2022/06/20 09:05:36;;;;;;;8.70;3.98;;;;;;;29.47;44.00;99399.02;1596423;87;27931;-70
2022/06/20 09:08:38;;;;;;;10.00;3.92;;;;;;;29.31;44.00;99400.69;1593741;88;25820;-66
2022/06/20 09:11:25;;;;;;;15.43;4.17;;;;;;;29.26;44.62;99398.52;1596196;88;25795;-68
2022/06/20 09:14:20;;;;;;;8.55;3.58;;;;;;;29.35;45.00;99412.45;1588369;88;25823;-66
2022/06/20 09:17:04;;;;;;;8.48;4.03;;;;;;;29.61;45.15;99410.98;1597255;88;25487;-65
2022/06/20 09:20:16;;;;;;;10.55;4.03;;;;;;;29.97;44.44;99405.32;1600852;88;27365;-67
2022/06/20 09:25:58;;;;;;;15.30;4.05;;;;;;;30.64;43.65;99427.14;1606050;87;25807;-65
2022/06/20 09:28:46;;;;;;;12.60;3.90;;;;;;;30.86;43.58;99426.94;1592882;88;26427;-66
2022/06/20 09:31:33;;;;;;;12.73;3.60;;;;;;;31.23;42.98;99411.47;1590978;88;25857;-67
2022/06/20 09:34:24;;;;;;;10.72;3.70;;;;;;;31.38;42.20;99405.94;1586072;88;27633;-66
2022/06/20 09:37:25;;;;;;;10.30;3.90;;;;;;;31.53;41.12;99399.83;1591274;89;25762;-66
2022/06/20 09:40:13;;;;;;;11.08;5.60;;;;;;;31.55;40.72;99393.16;1577583;90;25913;-67
2022/06/20 09:43:07;;;;;;;12.05;3.75;;;;;;;31.78;40.65;99393.63;1599436;88;25835;-68
2022/06/20 09:46:00;;;;;;;14.63;3.70;;;;;;;31.86;40.05;99391.22;1600218;88;25781;-68
2022/06/20 09:48:43;;;;;;;9.50;3.35;;;;;;;32.13;40.07;99394.44;1599743;88;28080;-66
2022/06/20 09:51:32;;;;;;;15.65;4.00;;;;;;;32.41;40.26;99393.56;1599094;89;25743;-68
2022/06/20 09:54:31;;;;;;;11.85;3.98;;;;;;;32.91;39.88;99393.68;1656295;85;25682;-68
2022/06/20 09:57:23;;;;;;;8.35;3.70;;;;;;;33.62;38.32;99407.69;1578460;90;26324;-67
2022/06/20 10:00:01;;;;;;;12.23;4.00;;;;;;;33.62;38.32;99407.69;1509103;93;25755;-67
2022/06/20 10:02:55;;;;;;;15.90;5.50;;;;;;;33.68;38.21;99428.83;1495043;94;27461;-68
2022/06/20 10:05:36;;;;;;;15.72;4.10;;;;;;;33.44;38.21;99412.94;1538180;91;25775;-71
2022/06/20 10:08:23;;;;;;;15.55;4.95;;;;;;;33.31;38.20;99420.91;1538016;91;26087;-67
2022/06/20 10:10:55;;;;;;;9.33;3.90;;;;;;;33.22;38.62;99410.59;1538383;92;25781;-69
2022/06/20 10:13:41;;;;;;;15.35;4.37;;;;;;;33.24;39.08;99422.08;1538323;91;25559;-69
2022/06/20 10:16:35;;;;;;;7.97;3.45;;;;;;;33.20;38.59;99415.89;1520401;93;27406;-74
2022/06/20 10:19:22;;;;;;;12.25;3.47;;;;;;;33.04;39.40;99407.98;1507345;93;25734;-74
2022/06/20 10:22:14;;;;;;;9.05;3.33;;;;;;;32.92;39.51;99418.25;1509302;93;26403;-75
2022/06/20 10:25:16;;;;;;;8.08;3.67;;;;;;;32.87;39.05;99423.89;1512453;92;25870;-75
2022/06/20 10:27:47;;;;;;;9.73;4.08;;;;;;;32.72;40.24;99428.73;1484696;95;25770;-73
2022/06/20 10:30:19;;;;;;;14.28;3.77;;;;;;;32.33;40.86;99429.53;1493680;94;27356;-72
2022/06/20 10:32:56;;;;;;;10.78;4.17;;;;;;;32.31;41.59;99426.45;1488075;95;25809;-75
2022/06/20 10:35:44;;;;;;;16.02;4.72;;;;;;;32.34;42.39;99418.50;1568589;88;25994;-75
2022/06/20 10:38:39;;;;;;;13.90;4.50;;;;;;;32.46;42.23;99422.28;1580299;90;25764;-75
2022/06/20 10:41:14;;;;;;;10.88;4.45;;;;;;;32.53;43.28;99425.32;1590844;88;25799;-74
2022/06/20 10:44:13;;;;;;;11.10;4.92;;;;;;;32.67;42.48;99416.80;1574758;90;27510;-75
2022/06/20 10:46:47;;;;;;;10.13;4.65;;;;;;;32.54;42.96;99416.45;1574681;90;25848;-72
2022/06/20 10:49:43;;;;;;;11.40;4.92;;;;;;;32.38;42.89;99419.70;1608338;88;25495;-70
2022/06/20 10:52:21;;;;;;;10.63;5.08;;;;;;;32.41;43.17;99420.15;1608792;87;25863;-70
2022/06/20 10:55:11;;;;;;;14.53;5.23;;;;;;;32.41;42.44;99420.78;1676465;85;25624;-71
2022/06/20 10:58:19;;;;;;;8.60;4.65;;;;;;;32.37;43.32;99413.34;1719561;83;27437;-71
2022/06/20 11:00:54;;;;;;;13.70;5.00;;;;;;;32.37;43.11;99417.55;1707623;83;25737;-71
2022/06/20 11:03:40;;;;;;;15.13;5.67;;;;;;;32.24;42.88;99418.44;1709548;83;25472;-73
2022/06/20 11:06:36;;;;;;;11.97;4.92;;;;;;;32.32;43.08;99419.61;1716109;83;25823;-71
2022/06/20 11:09:35;;;;;;;12.03;5.17;;;;;;;32.32;43.08;99419.61;1640417;86;25560;-71
2022/06/20 11:12:46;;;;;;;11.08;5.10;;;;;;;32.38;42.68;99430.27;1600190;87;27364;-76
2022/06/20 11:15:21;;;;;;;8.98;4.90;;;;;;;32.51;42.95;99464.98;1573523;89;25835;-77
2022/06/20 11:18:00;;;;;;;9.83;4.75;;;;;;;32.35;42.61;99457.83;1576332;88;25868;-74
2022/06/20 11:20:34;;;;;;;11.22;4.97;;;;;;;32.38;43.04;99472.23;1583500;89;26144;-74
2022/06/20 11:23:26;;;;;;;11.12;5.47;;;;;;;32.19;42.44;99488.40;1550934;91;25850;-75
2022/06/20 11:26:24;;;;;;;8.43;6.17;;;;;;;31.88;41.59;99505.53;1546129;91;26973;-74
2022/06/20 11:29:05;;;;;;;12.35;6.50;;;;;;;31.42;41.59;99531.64;1535848;91;25752;-73
2022/06/20 11:32:16;;;;;;;10.35;5.90;;;;;;;30.82;41.48;99543.54;1561236;90;25896;-72
2022/06/20 11:35:06;;;;;;;10.15;5.10;;;;;;;30.17;41.71;99546.27;1560446;90;26439;-63
2022/06/20 11:37:53;;;;;;;8.10;4.85;;;;;;;29.33;42.74;99549.36;1558163;90;25837;-70
2022/06/20 11:40:44;;;;;;;9.23;5.70;;;;;;;28.66;42.98;99547.82;1560957;90;27535;-69
2022/06/20 11:43:19;;;;;;;10.82;5.20;;;;;;;28.08;44.02;99553.89;1560865;90;25794;-68
2022/06/20 11:46:24;;;;;;;9.38;5.80;;;;;;;27.52;44.75;99572.50;1574829;89;25860;-72
2022/06/20 11:49:30;;;;;;;9.63;5.10;;;;;;;27.08;45.67;99574.31;1609232;88;25873;-68
2022/06/20 11:52:23;;;;;;;7.25;5.05;;;;;;;26.54;46.70;99561.09;1609633;88;25796;-66
2022/06/20 11:55:09;;;;;;;10.85;5.85;;;;;;;26.09;47.51;99559.84;1573968;89;28056;-68
2022/06/20 11:57:44;;;;;;;7.97;4.92;;;;;;;25.81;48.71;99546.82;1615289;87;25698;-66
2022/06/20 12:00:20;;;;;;;6.95;5.10;;;;;;;25.62;49.16;99549.80;1639096;86;25727;-67
2022/06/20 12:03:07;;;;;;;12.82;5.30;;;;;;;25.43;49.65;99545.09;1613102;87;26424;-68
2022/06/20 12:05:56;;;;;;;12.98;6.22;;;;;;;25.28;49.94;99522.48;1616239;87;25780;-69
2022/06/20 12:08:43;;;;;;;13.72;7.20;;;;;;;25.13;50.41;99513.66;1623220;85;29584;-66
2022/06/20 12:11:31;;;;;;;8.20;5.12;;;;;;;24.97;50.91;99530.98;1691368;84;25753;-68
2022/06/20 12:14:12;;;;;;;10.60;5.53;;;;;;;24.83;51.18;99534.05;1699899;84;29407;-68
2022/06/20 12:17:22;;;;;;;9.65;4.87;;;;;;;24.65;51.68;99559.26;1698758;82;25805;-68
2022/06/20 12:23:18;;;;;;;9.28;4.95;;;;;;;24.16;52.21;99591.42;1669889;85;28087;-68
2022/06/20 12:26:01;;;;;;;6.97;4.72;;;;;;;23.94;52.89;99608.92;1663821;85;25771;-68
2022/06/20 12:28:37;;;;;;;9.60;4.67;;;;;;;23.73;53.14;99633.45;1657873;85;25781;-68
2022/06/20 12:31:27;;;;;;;8.33;4.65;;;;;;;23.52;53.42;99608.30;1643243;86;26286;-67
2022/06/20 12:34:05;;;;;;;6.67;4.87;;;;;;;23.35;53.50;99583.88;1652432;86;25779;-67
2022/06/20 12:36:45;;;;;;;7.78;4.78;;;;;;;23.24;53.98;99541.22;1634586;86;27494;-64
2022/06/20 12:39:31;;;;;;;9.90;5.03;;;;;;;23.18;54.79;99506.43;1635667;86;25971;-67
2022/06/20 12:42:24;;;;;;;8.33;4.95;;;;;;;23.15;55.09;99487.94;1633882;86;25861;-66